Time;durP1;ratioP1;P1;durP2;ratioP2;P2;SDS_P1;SDS_P2;PMS_P1;PMS_P2;Temp;Humidity;BMP_temperature;BMP_pressure;BME280_temperature;BME280_humidity;BME280_pressure;Samples;Min_cycle;Max_cycle;Signal;HPM_P1;HPM_P2
2022/11/24 00:02:23;;;;;;;18.00;9.93;;;;;;;;;;5004305;28;20176;-67
2022/11/24 00:04:48;;;;;;;13.37;9.70;;;;;;;;;;5008163;28;20640;-66
2022/11/24 00:07:13;;;;;;;14.80;10.30;;;;;;;;;;5015647;28;20207;-66
2022/11/24 00:09:38;;;;;;;12.17;9.70;;;;;;;;;;5008241;28;20191;-67
2022/11/24 00:12:04;;;;;;;14.03;9.23;;;;;;;;;;5015585;28;20187;-66
2022/11/24 00:14:29;;;;;;;13.87;9.57;;;;;;;;;;5019291;28;20173;-67
2022/11/24 00:16:54;;;;;;;12.50;9.00;;;;;;;;;;5023813;28;20205;-66
2022/11/24 00:19:20;;;;;;;13.60;9.50;;;;;;;;;;5018679;28;20191;-66
2022/11/24 00:21:45;;;;;;;16.03;9.43;;;;;;;;;;5025967;28;20279;-66
2022/11/24 00:24:10;;;;;;;16.20;9.57;;;;;;;;;;5024831;28;20176;-65
2022/11/24 00:26:36;;;;;;;12.00;9.30;;;;;;;;;;5023516;28;20192;-66
2022/11/24 00:29:02;;;;;;;12.90;9.50;;;;;;;;;;5021614;28;20197;-67
2022/11/24 00:31:29;;;;;;;13.90;9.30;;;;;;;;;;5023229;28;20208;-66
2022/11/24 00:33:56;;;;;;;14.30;9.63;;;;;;;;;;5003763;28;20812;-66
2022/11/24 00:36:22;;;;;;;15.60;9.17;;;;;;;;;;5023702;28;20407;-66
2022/11/24 00:38:51;;;;;;;10.30;8.83;;;;;;;;;;5021234;28;20466;-66
2022/11/24 00:41:17;;;;;;;14.67;8.80;;;;;;;;;;5023880;28;20423;-66
2022/11/24 00:43:42;;;;;;;14.07;8.93;;;;;;;;;;5016870;28;20485;-66
2022/11/24 00:46:07;;;;;;;16.70;9.23;;;;;;;;;;5015748;28;20759;-66
2022/11/24 00:48:33;;;;;;;14.90;8.73;;;;;;;;;;5008302;28;20216;-67
2022/11/24 00:51:03;;;;;;;12.57;8.97;;;;;;;;;;5004170;28;20290;-66
2022/11/24 00:53:29;;;;;;;15.20;9.00;;;;;;;;;;5021050;28;21166;-66
2022/11/24 00:55:54;;;;;;;17.30;10.47;;;;;;;;;;5020808;28;20427;-66
2022/11/24 00:58:20;;;;;;;13.03;8.97;;;;;;;;;;5012461;28;20214;-67
2022/11/24 01:00:45;;;;;;;15.27;9.53;;;;;;;;;;5010113;28;20658;-66
2022/11/24 01:03:14;;;;;;;12.80;8.77;;;;;;;;;;4999076;28;20528;-66
2022/11/24 01:05:39;;;;;;;17.23;9.17;;;;;;;;;;5010656;28;20203;-67
2022/11/24 01:08:05;;;;;;;13.63;8.83;;;;;;;;;;5016270;28;21375;-67
2022/11/24 01:10:30;;;;;;;14.07;9.00;;;;;;;;;;5016296;28;20204;-66
2022/11/24 01:12:56;;;;;;;16.60;8.73;;;;;;;;;;5017865;28;20180;-66
2022/11/24 01:15:21;;;;;;;12.67;9.00;;;;;;;;;;5016893;28;20173;-66
2022/11/24 01:17:46;;;;;;;19.10;9.73;;;;;;;;;;5019808;28;20196;-66
2022/11/24 01:20:12;;;;;;;15.47;9.30;;;;;;;;;;5023824;28;20184;-66
2022/11/24 01:22:37;;;;;;;14.80;8.53;;;;;;;;;;5024781;28;20169;-66
2022/11/24 01:25:06;;;;;;;13.93;9.03;;;;;;;;;;5021922;28;20195;-66
2022/11/24 01:27:31;;;;;;;22.83;10.27;;;;;;;;;;5018497;28;20277;-66
2022/11/24 01:29:57;;;;;;;12.20;8.80;;;;;;;;;;5022504;28;20856;-66
2022/11/24 01:32:22;;;;;;;14.23;8.57;;;;;;;;;;5024518;28;20165;-66
2022/11/24 01:34:48;;;;;;;21.10;8.83;;;;;;;;;;5027050;28;20276;-66
2022/11/24 01:37:13;;;;;;;15.57;9.27;;;;;;;;;;5029355;28;20646;-66
2022/11/24 01:39:38;;;;;;;17.70;9.57;;;;;;;;;;5026823;28;20259;-66
2022/11/24 01:42:04;;;;;;;19.60;9.47;;;;;;;;;;5023282;28;20243;-66
2022/11/24 01:44:29;;;;;;;13.77;8.43;;;;;;;;;;5020704;28;20239;-66
2022/11/24 01:47:03;;;;;;;13.90;8.50;;;;;;;;;;5021497;28;20216;-67
2022/11/24 01:49:37;;;;;;;20.10;8.10;;;;;;;;;;5019410;28;20519;-66
2022/11/24 01:52:11;;;;;;;19.03;8.07;;;;;;;;;;5018353;28;20443;-66
2022/11/24 01:54:38;;;;;;;15.90;8.33;;;;;;;;;;5017774;28;20445;-66
2022/11/24 01:57:23;;;;;;;20.87;7.83;;;;;;;;;;5019659;28;20479;-67
2022/11/24 01:59:50;;;;;;;18.67;7.90;;;;;;;;;;5017354;28;20446;-67
2022/11/24 02:02:16;;;;;;;15.13;7.13;;;;;;;;;;5020071;28;20439;-66
2022/11/24 02:04:43;;;;;;;13.00;7.13;;;;;;;;;;5019882;28;20529;-66
2022/11/24 02:07:09;;;;;;;16.47;7.80;;;;;;;;;;5017029;28;20682;-67
2022/11/24 02:09:52;;;;;;;14.80;6.73;;;;;;;;;;5017750;28;20454;-67
2022/11/24 02:12:18;;;;;;;19.83;7.00;;;;;;;;;;5015881;28;20947;-66
2022/11/24 02:14:44;;;;;;;24.43;7.83;;;;;;;;;;5021186;28;20437;-67
2022/11/24 02:17:09;;;;;;;13.87;6.80;;;;;;;;;;5023628;28;21217;-67
2022/11/24 02:19:44;;;;;;;19.33;7.90;;;;;;;;;;5022164;28;20427;-67
2022/11/24 02:22:22;;;;;;;21.20;6.80;;;;;;;;;;5010069;28;20595;-66
2022/11/24 02:25:07;;;;;;;14.30;5.87;;;;;;;;;;5019377;28;20454;-67
2022/11/24 02:27:33;;;;;;;16.10;5.83;;;;;;;;;;5021272;28;20471;-67
2022/11/24 02:29:58;;;;;;;17.20;6.43;;;;;;;;;;5017559;28;20447;-66
2022/11/24 02:32:23;;;;;;;17.07;6.60;;;;;;;;;;5005563;28;20670;-67
2022/11/24 02:34:49;;;;;;;18.97;6.03;;;;;;;;;;5016969;28;20584;-66
2022/11/24 02:37:14;;;;;;;20.80;6.23;;;;;;;;;;5023182;28;20585;-66
2022/11/24 02:39:39;;;;;;;17.93;5.83;;;;;;;;;;5019554;28;20283;-66
2022/11/24 02:42:07;;;;;;;15.10;5.70;;;;;;;;;;5024225;28;20216;-66
2022/11/24 02:44:35;;;;;;;22.93;6.37;;;;;;;;;;5027177;28;20599;-66
2022/11/24 02:47:01;;;;;;;18.60;5.60;;;;;;;;;;5024883;28;20534;-66
2022/11/24 02:49:26;;;;;;;13.30;5.63;;;;;;;;;;5020991;28;20439;-66
2022/11/24 02:51:51;;;;;;;19.33;5.60;;;;;;;;;;5018541;28;20454;-66
2022/11/24 02:54:17;;;;;;;21.00;5.27;;;;;;;;;;5016270;28;20207;-67
2022/11/24 02:56:42;;;;;;;17.50;6.03;;;;;;;;;;5011500;28;20643;-66
2022/11/24 02:59:07;;;;;;;14.03;5.50;;;;;;;;;;5018513;28;20200;-66
2022/11/24 03:01:33;;;;;;;21.93;6.23;;;;;;;;;;5022027;28;20190;-66
2022/11/24 03:03:58;;;;;;;14.23;4.90;;;;;;;;;;5019047;28;20547;-66
2022/11/24 03:06:23;;;;;;;15.17;6.43;;;;;;;;;;5019295;28;20200;-66
2022/11/24 03:08:49;;;;;;;14.23;4.80;;;;;;;;;;5016476;28;20196;-66
2022/11/24 03:11:14;;;;;;;20.67;5.53;;;;;;;;;;5015038;28;20190;-66
2022/11/24 03:13:39;;;;;;;21.27;6.47;;;;;;;;;;5015400;28;20905;-66
2022/11/24 03:16:06;;;;;;;15.70;4.83;;;;;;;;;;5021809;28;20184;-66
2022/11/24 03:18:32;;;;;;;19.47;4.90;;;;;;;;;;5021375;28;20279;-65
2022/11/24 03:21:00;;;;;;;24.73;5.63;;;;;;;;;;5024861;28;20539;-66
2022/11/24 03:23:25;;;;;;;17.57;5.13;;;;;;;;;;5019954;28;20198;-66
2022/11/24 03:25:51;;;;;;;23.07;6.70;;;;;;;;;;5012034;28;20427;-66
2022/11/24 03:28:16;;;;;;;16.10;4.80;;;;;;;;;;5017233;28;20205;-66
2022/11/24 03:30:41;;;;;;;12.63;4.50;;;;;;;;;;5018603;28;20184;-65
2022/11/24 03:33:07;;;;;;;15.97;5.13;;;;;;;;;;5013007;28;20283;-66
2022/11/24 03:35:32;;;;;;;17.27;4.90;;;;;;;;;;5014234;28;20180;-66
2022/11/24 03:37:57;;;;;;;17.83;4.60;;;;;;;;;;4991108;28;20879;-66
2022/11/24 03:40:23;;;;;;;20.33;5.13;;;;;;;;;;5013691;28;20192;-66
2022/11/24 03:42:48;;;;;;;23.37;5.83;;;;;;;;;;5011878;28;20192;-66
2022/11/24 03:45:13;;;;;;;21.77;5.00;;;;;;;;;;5014597;28;20216;-66
2022/11/24 03:47:39;;;;;;;19.23;4.83;;;;;;;;;;5011771;28;20869;-66
2022/11/24 03:50:05;;;;;;;14.37;5.97;;;;;;;;;;5007882;28;20223;-66
2022/11/24 03:52:30;;;;;;;20.53;4.80;;;;;;;;;;5007157;28;20268;-66
2022/11/24 03:54:55;;;;;;;15.30;4.90;;;;;;;;;;5012199;28;20434;-66
2022/11/24 03:57:21;;;;;;;16.03;4.63;;;;;;;;;;5010240;28;20227;-66
2022/11/24 03:59:46;;;;;;;15.87;4.67;;;;;;;;;;5012012;28;20279;-66
2022/11/24 04:02:11;;;;;;;17.17;5.00;;;;;;;;;;5013204;28;20988;-66
2022/11/24 04:04:37;;;;;;;13.47;4.40;;;;;;;;;;4998869;28;20188;-66
2022/11/24 04:07:02;;;;;;;12.53;4.43;;;;;;;;;;5014870;28;20204;-66
2022/11/24 04:09:28;;;;;;;16.60;4.73;;;;;;;;;;5005881;28;21996;-66
2022/11/24 04:14:37;;;;;;;17.07;4.73;;;;;;;;;;5011667;28;20199;-66
2022/11/24 04:17:03;;;;;;;18.03;4.27;;;;;;;;;;5017667;28;20874;-66
2022/11/24 04:19:28;;;;;;;10.30;3.83;;;;;;;;;;5018344;28;20195;-66
2022/11/24 04:21:53;;;;;;;20.30;4.27;;;;;;;;;;5018641;28;21347;-66
2022/11/24 04:24:18;;;;;;;15.90;4.43;;;;;;;;;;5019839;28;20188;-66
2022/11/24 04:26:44;;;;;;;16.80;4.37;;;;;;;;;;5014536;28;20227;-65
2022/11/24 04:29:09;;;;;;;18.90;4.70;;;;;;;;;;5018928;28;20204;-66
2022/11/24 04:31:34;;;;;;;12.20;3.90;;;;;;;;;;5016291;28;20172;-66
2022/11/24 04:34:00;;;;;;;19.73;5.00;;;;;;;;;;5018075;28;20188;-66
2022/11/24 04:36:25;;;;;;;13.10;3.67;;;;;;;;;;4994970;28;20203;-66
2022/11/24 04:38:51;;;;;;;20.40;4.90;;;;;;;;;;5017313;28;20201;-65
2022/11/24 04:41:17;;;;;;;21.37;4.93;;;;;;;;;;5016257;28;20244;-66
2022/11/24 04:43:42;;;;;;;18.20;5.60;;;;;;;;;;5017179;28;21003;-66
2022/11/24 04:46:09;;;;;;;21.93;5.47;;;;;;;;;;5019409;28;20187;-66
2022/11/24 04:48:34;;;;;;;20.23;4.60;;;;;;;;;;5010755;28;20277;-66
2022/11/24 04:51:03;;;;;;;16.47;4.50;;;;;;;;;;5008777;28;20439;-65
2022/11/24 04:53:28;;;;;;;25.70;5.23;;;;;;;;;;5015256;28;25721;-65
2022/11/24 04:55:53;;;;;;;20.67;4.80;;;;;;;;;;5013818;28;20427;-65
2022/11/24 04:58:18;;;;;;;21.80;5.57;;;;;;;;;;5013012;28;20257;-66
2022/11/24 05:00:44;;;;;;;17.30;4.00;;;;;;;;;;5015668;28;20213;-66
2022/11/24 05:03:09;;;;;;;20.80;4.83;;;;;;;;;;5013645;28;20542;-66
2022/11/24 05:05:34;;;;;;;16.70;4.53;;;;;;;;;;4994617;28;20193;-66
2022/11/24 05:07:59;;;;;;;15.80;4.40;;;;;;;;;;5031058;23;20200;-79
2022/11/24 05:10:33;;;;;;;17.67;4.90;;;;;;;;;;5022032;28;20192;-79
2022/11/24 05:12:59;;;;;;;21.67;4.43;;;;;;;;;;5026944;28;20223;-79
2022/11/24 05:15:25;;;;;;;15.10;3.80;;;;;;;;;;5010467;28;20440;-78
2022/11/24 05:17:50;;;;;;;15.53;4.20;;;;;;;;;;5010290;28;20191;-78
2022/11/24 05:20:15;;;;;;;19.27;4.73;;;;;;;;;;5013017;28;20654;-78
2022/11/24 05:22:41;;;;;;;14.30;3.87;;;;;;;;;;5026059;28;20181;-78
2022/11/24 05:25:06;;;;;;;23.60;4.60;;;;;;;;;;5026842;28;20176;-77
2022/11/24 05:27:31;;;;;;;17.37;4.30;;;;;;;;;;5018549;28;20915;-78
2022/11/24 05:29:57;;;;;;;16.33;4.37;;;;;;;;;;5007329;28;20206;-78
2022/11/24 05:32:22;;;;;;;18.13;3.80;;;;;;;;;;5025729;28;20181;-77
2022/11/24 05:34:48;;;;;;;19.63;3.87;;;;;;;;;;5021036;28;20806;-78
2022/11/24 05:37:13;;;;;;;18.73;4.30;;;;;;;;;;5010258;28;20217;-78
2022/11/24 05:39:38;;;;;;;16.20;4.27;;;;;;;;;;5024724;28;20208;-79
2022/11/24 05:44:49;;;;;;;14.40;4.70;;;;;;;;;;5022286;28;20315;-79
2022/11/24 05:47:15;;;;;;;18.90;4.73;;;;;;;;;;5007336;28;20656;-78
2022/11/24 05:49:40;;;;;;;13.77;4.80;;;;;;;;;;5002306;28;21189;-78
2022/11/24 05:52:05;;;;;;;14.57;4.77;;;;;;;;;;5021899;28;20544;-78
2022/11/24 05:54:30;;;;;;;15.73;4.63;;;;;;;;;;5019492;28;20712;-78
2022/11/24 05:56:56;;;;;;;20.53;3.37;;;;;;;;;;5023961;28;20705;-78
2022/11/24 05:59:21;;;;;;;12.80;3.40;;;;;;;;;;5020014;28;20198;-78
2022/11/24 06:01:47;;;;;;;16.60;4.13;;;;;;;;;;5022906;28;20184;-78
2022/11/24 06:04:12;;;;;;;21.43;4.40;;;;;;;;;;5015070;28;20208;-78
2022/11/24 06:06:37;;;;;;;12.23;3.43;;;;;;;;;;5017332;28;20217;-78
2022/11/24 06:09:03;;;;;;;14.63;4.20;;;;;;;;;;5017878;28;20243;-78
2022/11/24 06:11:29;;;;;;;13.67;3.70;;;;;;;;;;5003942;28;20188;-79
2022/11/24 06:13:54;;;;;;;21.43;3.37;;;;;;;;;;5016671;28;20443;-78
2022/11/24 06:16:19;;;;;;;13.27;3.70;;;;;;;;;;5025940;28;20179;-78
2022/11/24 06:18:45;;;;;;;18.30;4.10;;;;;;;;;;5024446;28;20824;-78
2022/11/24 06:21:10;;;;;;;16.10;3.67;;;;;;;;;;5025069;28;20181;-79
2022/11/24 06:23:35;;;;;;;13.77;3.70;;;;;;;;;;5013222;28;20256;-79
2022/11/24 06:26:01;;;;;;;19.53;4.73;;;;;;;;;;5024108;28;20169;-78
2022/11/24 06:28:26;;;;;;;15.37;3.67;;;;;;;;;;5026368;28;20240;-79
2022/11/24 06:30:52;;;;;;;22.10;5.00;;;;;;;;;;5023483;28;20188;-79
2022/11/24 06:33:17;;;;;;;13.80;3.43;;;;;;;;;;5014079;28;20177;-79
2022/11/24 06:35:43;;;;;;;14.43;3.53;;;;;;;;;;5009840;28;20185;-79
2022/11/24 06:38:08;;;;;;;13.60;4.00;;;;;;;;;;5028201;28;20678;-78
2022/11/24 06:40:33;;;;;;;19.10;4.00;;;;;;;;;;5025876;28;20713;-78
2022/11/24 06:42:59;;;;;;;24.17;3.60;;;;;;;;;;5026081;28;20203;-79
2022/11/24 06:45:24;;;;;;;11.87;3.73;;;;;;;;;;5028519;28;20191;-78
2022/11/24 06:47:52;;;;;;;10.00;3.47;;;;;;;;;;5008028;28;20208;-78
2022/11/24 06:50:18;;;;;;;17.67;4.80;;;;;;;;;;5023424;28;20169;-79
2022/11/24 06:52:43;;;;;;;14.60;3.77;;;;;;;;;;5025582;28;20956;-79
2022/11/24 06:55:08;;;;;;;15.43;4.10;;;;;;;;;;5019088;28;20276;-79
2022/11/24 06:57:34;;;;;;;17.73;4.30;;;;;;;;;;5000767;28;20911;-78
2022/11/24 06:59:59;;;;;;;19.77;4.73;;;;;;;;;;5008308;28;20185;-79
2022/11/24 07:02:24;;;;;;;18.80;4.30;;;;;;;;;;5010790;28;20181;-78
2022/11/24 07:04:50;;;;;;;23.13;4.07;;;;;;;;;;5020983;28;20176;-79
2022/11/24 07:07:15;;;;;;;13.97;4.60;;;;;;;;;;5001931;28;20196;-79
2022/11/24 07:09:40;;;;;;;16.47;4.20;;;;;;;;;;5022342;28;20757;-79
2022/11/24 07:12:06;;;;;;;30.30;5.33;;;;;;;;;;5026921;28;20177;-78
2022/11/24 07:14:31;;;;;;;17.00;4.20;;;;;;;;;;5025710;28;20658;-79
2022/11/24 07:16:56;;;;;;;14.83;4.00;;;;;;;;;;5024853;28;20181;-78
2022/11/24 07:19:22;;;;;;;13.10;5.10;;;;;;;;;;5022971;28;20618;-79
2022/11/24 07:21:47;;;;;;;24.47;5.30;;;;;;;;;;5010223;28;20177;-78
2022/11/24 07:24:12;;;;;;;16.63;4.93;;;;;;;;;;5018692;28;20181;-79
2022/11/24 07:26:38;;;;;;;23.93;4.50;;;;;;;;;;5020997;28;20200;-78
2022/11/24 07:29:04;;;;;;;17.90;4.30;;;;;;;;;;5001083;28;20199;-79
2022/11/24 07:31:29;;;;;;;17.90;4.67;;;;;;;;;;4998341;28;20435;-78
2022/11/24 07:33:55;;;;;;;27.30;5.27;;;;;;;;;;4998580;28;20176;-79
2022/11/24 07:36:20;;;;;;;20.13;4.37;;;;;;;;;;5002626;28;20279;-79
2022/11/24 07:38:46;;;;;;;16.13;3.70;;;;;;;;;;5024162;28;20193;-78
2022/11/24 07:41:12;;;;;;;15.00;4.07;;;;;;;;;;5019275;28;20176;-79
2022/11/24 07:43:38;;;;;;;13.47;4.03;;;;;;;;;;5003947;28;20180;-79
2022/11/24 07:46:04;;;;;;;14.90;4.57;;;;;;;;;;5027221;28;20407;-78
2022/11/24 07:48:30;;;;;;;18.27;3.90;;;;;;;;;;5013056;28;20213;-79
2022/11/24 07:50:59;;;;;;;13.80;4.50;;;;;;;;;;5003823;28;20430;-79
2022/11/24 07:53:25;;;;;;;22.90;3.90;;;;;;;;;;5022744;28;20442;-77
2022/11/24 07:55:54;;;;;;;15.57;3.47;;;;;;;;;;5024449;28;20430;-78
2022/11/24 07:58:19;;;;;;;22.30;4.60;;;;;;;;;;5004616;28;20200;-76
2022/11/24 08:00:45;;;;;;;13.87;4.30;;;;;;;;;;5022680;28;20496;-77
2022/11/24 08:03:10;;;;;;;16.57;4.23;;;;;;;;;;5019740;28;20176;-77
2022/11/24 08:05:35;;;;;;;14.23;3.77;;;;;;;;;;5017748;28;20183;-77
2022/11/24 08:08:01;;;;;;;15.30;4.70;;;;;;;;;;5021154;28;20639;-78
2022/11/24 08:10:30;;;;;;;24.33;4.90;;;;;;;;;;5017197;28;20209;-77
2022/11/24 08:12:58;;;;;;;29.47;5.20;;;;;;;;;;5016991;28;20462;-78
2022/11/24 08:15:24;;;;;;;14.90;4.37;;;;;;;;;;5020312;28;20518;-77
2022/11/24 08:17:49;;;;;;;16.77;5.23;;;;;;;;;;5021023;28;21023;-77
2022/11/24 08:20:14;;;;;;;22.40;5.40;;;;;;;;;;5023306;28;20227;-77
2022/11/24 08:22:41;;;;;;;18.27;4.53;;;;;;;;;;5021517;28;20668;-77
2022/11/24 08:25:06;;;;;;;19.43;5.23;;;;;;;;;;4998264;28;20618;-79
2022/11/24 08:27:32;;;;;;;15.20;5.00;;;;;;;;;;4985034;28;20480;-77
2022/11/24 08:29:57;;;;;;;26.00;5.77;;;;;;;;;;5006917;28;20286;-77
2022/11/24 08:32:22;;;;;;;18.03;5.23;;;;;;;;;;4993609;28;20196;-77
2022/11/24 08:34:48;;;;;;;21.60;4.77;;;;;;;;;;5012394;28;20181;-76
2022/11/24 08:37:13;;;;;;;17.10;5.37;;;;;;;;;;4993165;28;20188;-76
2022/11/24 08:39:38;;;;;;;19.17;4.87;;;;;;;;;;4990215;28;20238;-76
2022/11/24 08:42:06;;;;;;;19.90;4.73;;;;;;;;;;5014695;28;20184;-76
2022/11/24 08:44:31;;;;;;;15.80;5.03;;;;;;;;;;5013421;28;20602;-77
2022/11/24 08:46:56;;;;;;;21.23;4.67;;;;;;;;;;5016246;28;20459;-77
2022/11/24 08:49:22;;;;;;;19.37;4.47;;;;;;;;;;5016929;28;20204;-76
2022/11/24 08:51:48;;;;;;;12.70;3.93;;;;;;;;;;5015344;28;20172;-76
2022/11/24 08:54:17;;;;;;;22.17;4.63;;;;;;;;;;4996568;28;20204;-77
2022/11/24 08:56:43;;;;;;;20.80;6.00;;;;;;;;;;4997683;28;20446;-77
2022/11/24 08:59:10;;;;;;;24.10;4.90;;;;;;;;;;5017364;28;21100;-77
2022/11/24 09:01:36;;;;;;;20.70;7.33;;;;;;;;;;5022880;28;20192;-77
2022/11/24 09:04:02;;;;;;;21.13;7.70;;;;;;;;;;5023781;28;20893;-77
2022/11/24 09:06:29;;;;;;;31.47;6.73;;;;;;;;;;5021985;28;20431;-77
2022/11/24 09:08:55;;;;;;;19.20;5.83;;;;;;;;;;5006224;28;20225;-77
2022/11/24 09:11:21;;;;;;;25.03;6.60;;;;;;;;;;5022321;28;20431;-77
2022/11/24 09:13:46;;;;;;;19.40;5.90;;;;;;;;;;5007766;28;20275;-77
2022/11/24 09:16:13;;;;;;;24.20;4.80;;;;;;;;;;5023322;28;20265;-77
2022/11/24 09:18:38;;;;;;;22.83;5.90;;;;;;;;;;5004509;28;20805;-77
2022/11/24 09:21:07;;;;;;;18.33;5.40;;;;;;;;;;5022968;28;20494;-77
2022/11/24 09:23:33;;;;;;;15.60;4.97;;;;;;;;;;4999742;28;20774;-78
2022/11/24 09:26:05;;;;;;;18.63;5.47;;;;;;;;;;5003930;28;20410;-77
2022/11/24 09:28:31;;;;;;;21.60;5.80;;;;;;;;;;5024994;28;20251;-77
2022/11/24 09:30:59;;;;;;;12.77;4.60;;;;;;;;;;5026986;28;20490;-77
2022/11/24 09:33:24;;;;;;;17.07;5.30;;;;;;;;;;5025405;28;20188;-78
2022/11/24 09:35:50;;;;;;;17.03;4.70;;;;;;;;;;5027332;28;20419;-77
2022/11/24 09:38:15;;;;;;;15.30;5.03;;;;;;;;;;5007592;28;20204;-77
2022/11/24 09:40:40;;;;;;;16.03;4.60;;;;;;;;;;5024405;28;20191;-77
2022/11/24 09:43:11;;;;;;;15.87;4.90;;;;;;;;;;5023593;28;20172;-78
2022/11/24 09:46:06;;;;;;;16.27;4.43;;;;;;;;;;5009174;28;20299;-77
2022/11/24 09:48:37;;;;;;;16.20;5.80;;;;;;;;;;5004767;28;20582;-77
2022/11/24 09:51:03;;;;;;;22.87;4.90;;;;;;;;;;5024549;28;20407;-78
2022/11/24 09:53:50;;;;;;;14.90;4.47;;;;;;;;;;5020989;28;20449;-77
2022/11/24 09:56:22;;;;;;;15.00;5.07;;;;;;;;;;5024640;28;20181;-78
2022/11/24 09:58:48;;;;;;;21.30;5.90;;;;;;;;;;5021459;28;20876;-77
2022/11/24 10:01:17;;;;;;;24.50;5.67;;;;;;;;;;5022539;28;20422;-78
2022/11/24 10:03:45;;;;;;;26.23;5.67;;;;;;;;;;5023449;28;20293;-78
2022/11/24 10:06:30;;;;;;;22.23;7.23;;;;;;;;;;5008232;28;20523;-77
2022/11/24 10:09:07;;;;;;;13.27;5.10;;;;;;;;;;4999621;28;20837;-77
2022/11/24 10:11:38;;;;;;;26.13;5.60;;;;;;;;;;5021080;28;20422;-78
2022/11/24 10:14:16;;;;;;;14.83;5.20;;;;;;;;;;5021235;28;21002;-78
2022/11/24 10:16:42;;;;;;;19.90;5.23;;;;;;;;;;5024496;28;20445;-77
2022/11/24 10:19:30;;;;;;;16.23;5.27;;;;;;;;;;5021481;28;20464;-77
2022/11/24 10:21:55;;;;;;;14.40;4.90;;;;;;;;;;5021857;28;20234;-77
2022/11/24 10:24:31;;;;;;;17.07;5.50;;;;;;;;;;5001050;28;20431;-78
2022/11/24 10:27:22;;;;;;;14.13;5.20;;;;;;;;;;5019793;28;20692;-78
2022/11/24 10:29:50;;;;;;;13.27;4.97;;;;;;;;;;5021825;28;20495;-78
2022/11/24 10:32:22;;;;;;;13.70;4.50;;;;;;;;;;5028519;28;20432;-78
2022/11/24 10:34:51;;;;;;;11.07;4.50;;;;;;;;;;5027746;28;20422;-78
2022/11/24 10:37:19;;;;;;;17.70;6.40;;;;;;;;;;5027361;28;20930;-78
2022/11/24 10:39:45;;;;;;;15.57;4.10;;;;;;;;;;5008167;28;20491;-78
2022/11/24 10:42:10;;;;;;;10.30;3.87;;;;;;;;;;5009454;28;20494;-77
2022/11/24 10:44:36;;;;;;;12.50;4.27;;;;;;;;;;5023076;28;20414;-78
2022/11/24 10:47:01;;;;;;;14.67;4.17;;;;;;;;;;5027049;28;20196;-77
2022/11/24 10:49:29;;;;;;;16.67;4.77;;;;;;;;;;5022701;28;20193;-78
2022/11/24 10:52:04;;;;;;;9.80;3.57;;;;;;;;;;5006370;28;20528;-78
2022/11/24 10:54:30;;;;;;;15.00;3.90;;;;;;;;;;5009640;28;20422;-77
2022/11/24 10:56:56;;;;;;;15.97;4.50;;;;;;;;;;5025719;28;20404;-77
2022/11/24 10:59:27;;;;;;;10.70;3.90;;;;;;;;;;5025206;28;20200;-77
2022/11/24 11:01:53;;;;;;;9.13;3.43;;;;;;;;;;5025319;28;20796;-78
2022/11/24 11:04:20;;;;;;;13.53;4.10;;;;;;;;;;5011816;28;20506;-77
2022/11/24 11:06:45;;;;;;;12.43;4.87;;;;;;;;;;5025002;28;20208;-77
2022/11/24 11:09:20;;;;;;;11.63;3.93;;;;;;;;;;5005456;28;20521;-78
2022/11/24 11:11:47;;;;;;;9.97;3.53;;;;;;;;;;5041246;23;20376;-66
2022/11/24 11:14:27;;;;;;;9.10;4.30;;;;;;;;;;5039567;28;20434;-66
2022/11/24 11:16:54;;;;;;;20.30;5.70;;;;;;;;;;5040436;28;21004;-66
2022/11/24 11:19:25;;;;;;;9.20;3.70;;;;;;;;;;5040142;28;20494;-66
2022/11/24 11:22:05;;;;;;;13.83;4.30;;;;;;;;;;5034552;28;20937;-66
2022/11/24 11:24:31;;;;;;;9.43;3.27;;;;;;;;;;5037287;28;20438;-66
2022/11/24 11:27:04;;;;;;;15.43;4.60;;;;;;;;;;5038561;28;20473;-66
2022/11/24 11:29:30;;;;;;;11.87;3.70;;;;;;;;;;5036977;28;20421;-66
2022/11/24 11:32:00;;;;;;;11.17;3.63;;;;;;;;;;5037041;28;20470;-66
2022/11/24 11:34:26;;;;;;;6.50;2.63;;;;;;;;;;5038425;28;20429;-67
2022/11/24 11:36:52;;;;;;;13.07;3.43;;;;;;;;;;5038641;28;20786;-66
2022/11/24 11:39:27;;;;;;;11.20;3.20;;;;;;;;;;5034557;28;21024;-66
2022/11/24 11:41:59;;;;;;;9.87;3.20;;;;;;;;;;5038250;28;20462;-66
2022/11/24 11:44:36;;;;;;;8.37;3.03;;;;;;;;;;5037224;28;20420;-66
2022/11/24 11:47:07;;;;;;;8.17;3.00;;;;;;;;;;5038165;28;20462;-66
2022/11/24 11:49:36;;;;;;;6.10;2.70;;;;;;;;;;5037495;28;20417;-67
2022/11/24 11:52:01;;;;;;;5.47;2.53;;;;;;;;;;5037481;28;20518;-66
2022/11/24 11:54:45;;;;;;;5.87;2.50;;;;;;;;;;5035489;28;20530;-66
2022/11/24 11:57:15;;;;;;;5.27;2.50;;;;;;;;;;5032734;28;20569;-66
2022/11/24 11:59:49;;;;;;;8.93;2.90;;;;;;;;;;5036035;28;20449;-66
2022/11/24 12:02:14;;;;;;;7.93;2.63;;;;;;;;;;5023572;28;21108;-66
2022/11/24 12:04:45;;;;;;;9.20;2.80;;;;;;;;;;5036858;28;20414;-65
2022/11/24 12:07:10;;;;;;;7.37;2.37;;;;;;;;;;5037265;28;20199;-65
2022/11/24 12:09:36;;;;;;;9.77;2.77;;;;;;;;;;5030793;28;20438;-65
2022/11/24 12:12:30;;;;;;;9.23;2.70;;;;;;;;;;5037013;28;20204;-65
2022/11/24 12:15:04;;;;;;;6.50;2.47;;;;;;;;;;5016352;28;20187;-65
2022/11/24 12:17:32;;;;;;;10.07;2.13;;;;;;;;;;5034676;28;20440;-65
2022/11/24 12:20:05;;;;;;;7.13;2.47;;;;;;;;;;5037714;28;20489;-65
2022/11/24 12:22:31;;;;;;;10.03;2.80;;;;;;;;;;5036471;28;20438;-65
2022/11/24 12:25:02;;;;;;;8.07;2.70;;;;;;;;;;5038284;28;20445;-65
2022/11/24 12:27:36;;;;;;;11.33;2.03;;;;;;;;;;5035408;28;20196;-65
2022/11/24 12:30:09;;;;;;;4.70;1.80;;;;;;;;;;5035616;28;20414;-66
2022/11/24 12:32:59;;;;;;;9.10;2.03;;;;;;;;;;5036655;28;20418;-65
2022/11/24 12:35:26;;;;;;;6.27;2.67;;;;;;;;;;5035448;28;20398;-65
2022/11/24 12:38:10;;;;;;;8.10;2.27;;;;;;;;;;5035920;28;20416;-65
2022/11/24 12:40:38;;;;;;;8.80;2.70;;;;;;;;;;5036715;28;20505;-65
2022/11/24 12:43:10;;;;;;;6.57;2.40;;;;;;;;;;5036683;28;20416;-65
2022/11/24 12:45:44;;;;;;;7.77;2.60;;;;;;;;;;5035943;28;20403;-65
2022/11/24 12:48:16;;;;;;;7.90;2.50;;;;;;;;;;5035363;28;20459;-65
2022/11/24 12:50:42;;;;;;;10.87;3.63;;;;;;;;;;5036578;28;20470;-65
2022/11/24 12:53:16;;;;;;;7.07;2.20;;;;;;;;;;5033830;28;20437;-65
2022/11/24 12:55:41;;;;;;;8.33;2.60;;;;;;;;;;5036174;28;20414;-65
2022/11/24 12:58:10;;;;;;;12.03;2.60;;;;;;;;;;5035484;28;20422;-65
2022/11/24 13:00:41;;;;;;;9.57;2.97;;;;;;;;;;5037444;28;20218;-65
2022/11/24 13:03:09;;;;;;;8.07;2.30;;;;;;;;;;5035164;28;20409;-65
2022/11/24 13:06:00;;;;;;;7.03;2.50;;;;;;;;;;5022879;28;20796;-66
2022/11/24 13:08:26;;;;;;;8.40;2.60;;;;;;;;;;5035271;28;20548;-65
2022/11/24 13:10:52;;;;;;;10.87;2.67;;;;;;;;;;5032145;28;20474;-65
2022/11/24 13:13:17;;;;;;;5.87;2.43;;;;;;;;;;5021605;28;20510;-65
2022/11/24 13:15:52;;;;;;;10.13;2.80;;;;;;;;;;5035368;28;20195;-65
2022/11/24 13:18:36;;;;;;;9.20;2.80;;;;;;;;;;5035408;28;20190;-66
2022/11/24 13:21:01;;;;;;;5.27;2.80;;;;;;;;;;5035990;28;20813;-65
2022/11/24 13:23:27;;;;;;;11.60;2.93;;;;;;;;;;5018378;28;20419;-65
2022/11/24 13:26:18;;;;;;;7.07;3.00;;;;;;;;;;5036179;28;20176;-65
2022/11/24 13:29:13;;;;;;;9.70;3.20;;;;;;;;;;5034751;28;20561;-65
2022/11/24 13:31:38;;;;;;;11.10;2.73;;;;;;;;;;5023234;28;20461;-65
2022/11/24 13:34:23;;;;;;;7.07;3.10;;;;;;;;;;5039467;28;20417;-65
2022/11/24 13:36:52;;;;;;;8.03;3.00;;;;;;;;;;5039412;28;20645;-65
2022/11/24 13:39:19;;;;;;;6.43;2.50;;;;;;;;;;5039453;28;20506;-65
2022/11/24 13:41:48;;;;;;;8.53;2.40;;;;;;;;;;5034095;28;20474;-66
2022/11/24 13:44:13;;;;;;;10.47;3.53;;;;;;;;;;5038446;28;20964;-65
2022/11/24 13:46:55;;;;;;;9.63;3.00;;;;;;;;;;5037112;28;20503;-65
2022/11/24 13:49:20;;;;;;;9.70;3.77;;;;;;;;;;5039567;28;20402;-65
2022/11/24 13:51:45;;;;;;;13.13;3.40;;;;;;;;;;5038839;28;20446;-66
2022/11/24 13:54:11;;;;;;;9.03;3.30;;;;;;;;;;5038753;28;20180;-65
2022/11/24 13:56:36;;;;;;;6.70;2.97;;;;;;;;;;5038967;28;20172;-65
2022/11/24 13:59:14;;;;;;;8.17;2.87;;;;;;;;;;5038570;28;20642;-65
2022/11/24 14:01:41;;;;;;;9.60;3.40;;;;;;;;;;5038803;28;20211;-65
2022/11/24 14:04:23;;;;;;;9.33;3.77;;;;;;;;;;5024898;28;20415;-65
2022/11/24 14:07:08;;;;;;;10.40;3.03;;;;;;;;;;5038242;28;20454;-65
2022/11/24 14:09:48;;;;;;;6.60;3.23;;;;;;;;;;5036352;28;20451;-65
2022/11/24 14:12:15;;;;;;;10.37;3.70;;;;;;;;;;5038571;28;20549;-65
2022/11/24 14:14:42;;;;;;;10.00;3.53;;;;;;;;;;5039047;28;20409;-65
2022/11/24 14:17:21;;;;;;;8.00;3.60;;;;;;;;;;5037370;28;20414;-65
2022/11/24 14:19:53;;;;;;;13.30;4.07;;;;;;;;;;5022402;28;20941;-65
2022/11/24 14:22:22;;;;;;;5.90;3.30;;;;;;;;;;5037718;28;20507;-65
2022/11/24 14:25:10;;;;;;;6.20;3.43;;;;;;;;;;5040153;28;20427;-65
2022/11/24 14:27:36;;;;;;;9.77;3.70;;;;;;;;;;5035603;28;20574;-65
2022/11/24 14:30:14;;;;;;;7.10;3.00;;;;;;;;;;5037446;28;20430;-66
2022/11/24 14:32:41;;;;;;;6.43;3.20;;;;;;;;;;5020722;28;20500;-66
2022/11/24 14:35:23;;;;;;;8.90;3.37;;;;;;;;;;5020185;28;20804;-66
2022/11/24 14:37:48;;;;;;;7.13;3.60;;;;;;;;;;5036927;28;20513;-65
2022/11/24 14:40:32;;;;;;;7.80;3.03;;;;;;;;;;5038881;28;20518;-66
2022/11/24 14:42:57;;;;;;;7.60;3.60;;;;;;;;;;5037325;28;20186;-66
2022/11/24 14:45:22;;;;;;;7.27;2.80;;;;;;;;;;5038606;28;20494;-66